createdAt,value
2022-10-13T00:00:56.158Z,68.41
2022-10-13T00:04:03.303Z,68.44
2022-10-13T00:07:09.895Z,68.52
2022-10-13T00:10:15.960Z,68.59
2022-10-13T00:13:22.762Z,68.66
2022-10-13T00:16:29.606Z,68.69
2022-10-13T00:19:38.595Z,68.71
2022-10-13T00:22:45.634Z,68.69
2022-10-13T00:26:02.879Z,68.69
2022-10-13T00:29:09.674Z,68.75
2022-10-13T00:32:15.529Z,68.80
2022-10-13T00:35:22.701Z,68.83
2022-10-13T00:38:27.572Z,68.93
2022-10-13T00:41:34.324Z,68.97
2022-10-13T00:45:11.353Z,68.99
2022-10-13T00:48:19.322Z,68.98
2022-10-13T00:51:25.836Z,69.01
2022-10-13T00:54:34.983Z,69.05
2022-10-13T00:57:41.213Z,69.08
2022-10-13T01:00:46.839Z,69.15
2022-10-13T01:03:54.566Z,69.17
2022-10-13T01:07:00.598Z,69.14
2022-10-13T01:10:08.559Z,69.14
2022-10-13T01:13:45.614Z,69.14
2022-10-13T01:17:17.531Z,69.16
2022-10-13T01:21:06.683Z,69.26
2022-10-13T01:24:35.852Z,69.29
2022-10-13T01:27:54.899Z,69.37
2022-10-13T01:31:24.536Z,69.33
2022-10-13T01:35:00.122Z,69.30
2022-10-13T01:38:14.875Z,69.41
2022-10-13T01:41:39.027Z,69.43
2022-10-13T01:44:51.015Z,69.36
2022-10-13T01:47:56.106Z,69.37
2022-10-13T01:51:03.014Z,69.41
2022-10-13T01:54:10.752Z,69.42
2022-10-13T01:57:17.207Z,69.46
2022-10-13T02:00:27.416Z,69.51
2022-10-13T02:03:51.970Z,69.58
2022-10-13T02:07:25.294Z,69.68
2022-10-13T02:10:51.355Z,69.94
2022-10-13T02:14:25.720Z,69.97
2022-10-13T02:17:32.767Z,69.95
2022-10-13T02:20:39.652Z,69.92
2022-10-13T02:23:46.202Z,69.89
2022-10-13T02:26:51.945Z,69.94
2022-10-13T02:30:06.806Z,70.02
2022-10-13T02:33:14.207Z,70.02
2022-10-13T02:36:20.809Z,69.94
2022-10-13T02:39:29.010Z,69.88
2022-10-13T02:42:35.354Z,69.87
2022-10-13T02:45:40.687Z,69.89
2022-10-13T02:48:47.015Z,69.93
2022-10-13T02:51:55.828Z,69.96
2022-10-13T02:55:01.604Z,70.00
2022-10-13T02:58:07.759Z,70.02
2022-10-13T03:01:25.107Z,70.00
2022-10-13T03:04:31.995Z,69.98
2022-10-13T03:07:38.075Z,69.97
2022-10-13T03:10:44.045Z,70.11
2022-10-13T03:13:51.246Z,70.04
2022-10-13T03:16:56.399Z,70.12
2022-10-13T03:20:02.272Z,70.14
2022-10-13T03:23:09.345Z,70.20
2022-10-13T03:26:15.204Z,70.28
2022-10-13T03:29:21.767Z,70.34
2022-10-13T03:32:27.696Z,70.41
2022-10-13T03:35:35.089Z,70.38
2022-10-13T03:38:43.847Z,70.38
2022-10-13T03:41:49.992Z,70.40
2022-10-13T03:44:56.703Z,70.49
2022-10-13T03:48:07.058Z,70.47
2022-10-13T03:51:13.406Z,70.53
2022-10-13T03:54:21.495Z,70.52
2022-10-13T03:57:28.463Z,70.55
2022-10-13T04:00:35.722Z,70.54
2022-10-13T04:03:43.450Z,70.47
2022-10-13T04:06:49.459Z,70.53
2022-10-13T04:09:54.745Z,70.67
2022-10-13T04:13:03.061Z,70.89
2022-10-13T04:16:10.449Z,71.03
2022-10-13T04:19:20.341Z,71.01
2022-10-13T04:22:26.223Z,70.98
2022-10-13T04:25:34.358Z,71.09
2022-10-13T04:28:43.462Z,71.10
2022-10-13T04:31:51.953Z,71.01
2022-10-13T04:34:58.669Z,71.02
2022-10-13T04:38:04.817Z,71.04
2022-10-13T04:41:11.126Z,70.90
2022-10-13T04:44:16.613Z,70.82
2022-10-13T04:47:21.857Z,70.89
2022-10-13T04:50:27.233Z,71.00
2022-10-13T04:53:36.148Z,71.08
2022-10-13T04:56:44.805Z,71.16
2022-10-13T04:59:52.455Z,71.19
2022-10-13T05:02:59.762Z,71.25
2022-10-13T05:06:05.969Z,71.29
2022-10-13T05:09:37.654Z,71.39
2022-10-13T05:12:44.583Z,71.56
2022-10-13T05:15:53.580Z,71.74
2022-10-13T05:18:59.497Z,71.89
2022-10-13T05:22:06.049Z,71.99
2022-10-13T05:25:12.724Z,72.05
2022-10-13T05:28:20.127Z,72.09
2022-10-13T05:31:35.569Z,72.09
2022-10-13T05:34:40.722Z,72.16
2022-10-13T05:37:48.886Z,72.21
2022-10-13T05:40:56.926Z,72.28
2022-10-13T05:44:03.634Z,72.34
2022-10-13T05:47:12.416Z,72.38
2022-10-13T05:50:19.523Z,72.38
2022-10-13T05:53:25.111Z,72.44
2022-10-13T05:56:34.201Z,72.50
2022-10-13T05:59:39.463Z,72.56
2022-10-13T06:02:49.371Z,72.61
2022-10-13T06:05:56.123Z,72.65
2022-10-13T06:09:02.784Z,72.69
2022-10-13T06:12:11.133Z,72.74
2022-10-13T06:15:16.887Z,72.81
2022-10-13T06:18:24.539Z,72.87
2022-10-13T06:21:30.280Z,72.91
2022-10-13T06:24:36.782Z,72.98
2022-10-13T06:27:45.947Z,73.02
2022-10-13T06:30:57.842Z,73.07
2022-10-13T06:34:04.762Z,73.15
2022-10-13T06:37:14.351Z,73.18
2022-10-13T06:40:21.590Z,73.24
2022-10-13T06:43:35.713Z,73.27
2022-10-13T06:46:36.781Z,73.30
2022-10-13T06:49:42.987Z,73.33
2022-10-13T06:52:51.455Z,73.34
2022-10-13T06:56:02.506Z,73.40
2022-10-13T06:59:08.413Z,73.39
2022-10-13T07:02:16.558Z,73.39
2022-10-13T07:05:25.499Z,73.40
2022-10-13T07:08:31.494Z,73.43
2022-10-13T07:11:39.175Z,73.48
2022-10-13T07:14:44.110Z,73.54
2022-10-13T07:17:51.233Z,73.58
2022-10-13T07:20:59.129Z,73.66
2022-10-13T07:24:05.458Z,73.67
2022-10-13T07:27:12.382Z,73.65
2022-10-13T07:30:17.706Z,73.68
2022-10-13T07:33:24.614Z,73.71
2022-10-13T07:36:31.339Z,73.69
2022-10-13T07:39:37.703Z,73.70
2022-10-13T07:42:43.793Z,73.62
2022-10-13T07:45:50.585Z,73.51
2022-10-13T07:48:56.358Z,73.47
2022-10-13T07:52:02.454Z,73.41
2022-10-13T07:55:10.102Z,73.33
2022-10-13T07:58:18.508Z,73.32
2022-10-13T08:01:23.596Z,73.26
2022-10-13T08:04:29.347Z,73.15
2022-10-13T08:07:38.870Z,73.09
2022-10-13T08:10:47.073Z,72.94
2022-10-13T08:13:55.656Z,72.90
2022-10-13T08:17:02.050Z,72.87
2022-10-13T08:20:06.972Z,72.83
2022-10-13T08:23:29.216Z,72.84
2022-10-13T08:26:42.101Z,72.78
2022-10-13T08:29:49.640Z,72.74
2022-10-13T08:32:49.475Z,72.70
2022-10-13T08:35:43.877Z,72.71
2022-10-13T08:38:57.324Z,72.64
2022-10-13T08:42:17.159Z,72.59
2022-10-13T08:45:42.716Z,72.50
2022-10-13T08:48:48.552Z,72.38
2022-10-13T08:51:55.706Z,72.31
2022-10-13T08:55:03.594Z,72.15
2022-10-13T08:58:11.770Z,72.12
2022-10-13T09:01:33.707Z,72.08
2022-10-13T09:04:53.581Z,72.08
2022-10-13T09:08:01.557Z,71.98
2022-10-13T09:11:08.116Z,71.94
2022-10-13T09:14:22.041Z,71.87
2022-10-13T09:17:43.304Z,71.80
2022-10-13T09:20:49.299Z,71.82
2022-10-13T09:23:57.735Z,71.80
2022-10-13T09:27:05.297Z,71.65
2022-10-13T09:30:11.611Z,71.55
2022-10-13T09:33:30.329Z,71.55
2022-10-13T09:36:41.364Z,71.59
2022-10-13T09:39:49.257Z,71.52
2022-10-13T09:43:05.998Z,71.37
2022-10-13T09:46:12.728Z,71.32
2022-10-13T09:49:40.681Z,71.29
2022-10-13T09:52:47.764Z,71.17
2022-10-13T09:55:57.015Z,71.13
2022-10-13T09:59:11.114Z,71.07
2022-10-13T10:02:20.307Z,70.98
2022-10-13T10:05:45.154Z,70.84
2022-10-13T10:09:27.465Z,70.94
2022-10-13T10:12:36.178Z,71.06
2022-10-13T10:16:03.408Z,70.94
2022-10-13T10:19:38.286Z,70.82
2022-10-13T10:22:59.744Z,70.59
2022-10-13T10:26:19.387Z,70.47
2022-10-13T10:29:35.503Z,70.46
2022-10-13T10:32:51.513Z,70.44
2022-10-13T10:36:08.865Z,70.33
2022-10-13T10:39:39.715Z,70.33
2022-10-13T10:43:13.217Z,70.20
2022-10-13T10:46:20.012Z,70.09
2022-10-13T10:49:47.094Z,69.91
2022-10-13T10:53:12.742Z,69.76
2022-10-13T10:56:23.271Z,69.63
2022-10-13T10:59:49.985Z,69.30
2022-10-13T11:03:08.296Z,69.22
2022-10-13T11:06:19.640Z,69.24
2022-10-13T11:09:25.079Z,69.19
2022-10-13T11:12:39.317Z,68.95
2022-10-13T11:15:57.869Z,68.91
2022-10-13T11:19:14.599Z,68.99
2022-10-13T11:22:27.137Z,68.87
2022-10-13T11:25:54.559Z,68.91
2022-10-13T11:29:01.076Z,68.77
2022-10-13T11:32:09.345Z,68.20
2022-10-13T11:35:32.365Z,67.88
2022-10-13T11:38:44.236Z,67.80
2022-10-13T11:42:07.891Z,67.85
2022-10-13T11:45:40.130Z,67.88
2022-10-13T11:49:14.926Z,67.77
2022-10-13T11:52:38.573Z,67.74
2022-10-13T11:56:01.949Z,67.88
2022-10-13T11:59:08.109Z,68.16
2022-10-13T12:02:30.617Z,68.10
2022-10-13T12:05:39.567Z,67.90
2022-10-13T12:08:48.771Z,67.95
2022-10-13T12:11:55.672Z,68.06
2022-10-13T12:15:06.927Z,67.90
2022-10-13T12:18:12.440Z,67.55
2022-10-13T12:21:30.671Z,67.31
2022-10-13T12:24:40.599Z,67.21
2022-10-13T12:27:49.789Z,67.00
2022-10-13T12:30:56.859Z,66.73
2022-10-13T12:34:08.041Z,66.56
2022-10-13T12:37:30.473Z,66.55
2022-10-13T12:40:35.881Z,66.42
2022-10-13T12:43:43.753Z,66.27
2022-10-13T12:47:12.075Z,65.97
2022-10-13T12:50:42.415Z,66.01
2022-10-13T12:53:49.410Z,65.59
2022-10-13T12:56:57.858Z,65.31
2022-10-13T13:00:06.869Z,65.09
2022-10-13T13:03:16.917Z,64.89
2022-10-13T13:06:30.552Z,64.81
2022-10-13T13:09:38.433Z,65.03
2022-10-13T13:12:47.008Z,64.86
2022-10-13T13:15:54.554Z,64.81
2022-10-13T13:19:04.148Z,64.53
2022-10-13T13:22:12.289Z,64.34
2022-10-13T13:25:18.576Z,64.18
2022-10-13T13:28:28.482Z,63.90
2022-10-13T13:31:36.216Z,63.72
2022-10-13T13:34:43.926Z,63.55
2022-10-13T13:38:04.829Z,63.34
2022-10-13T13:41:12.104Z,63.27
2022-10-13T13:44:18.362Z,63.33
2022-10-13T13:47:32.993Z,63.46
2022-10-13T13:50:41.800Z,63.41
2022-10-13T13:53:47.857Z,63.31
2022-10-13T13:56:58.598Z,63.24
2022-10-13T14:00:06.905Z,63.08
2022-10-13T14:03:19.138Z,63.01
2022-10-13T14:06:23.982Z,62.97
2022-10-13T14:09:31.242Z,62.92
2022-10-13T14:12:38.545Z,62.86
2022-10-13T14:15:44.697Z,62.84
2022-10-13T14:18:49.800Z,62.83
2022-10-13T14:21:58.071Z,62.80
2022-10-13T14:25:04.429Z,62.75
2022-10-13T14:28:14.504Z,62.62
2022-10-13T14:31:20.853Z,62.57
2022-10-13T14:34:27.703Z,62.53
2022-10-13T14:37:35.562Z,62.49
2022-10-13T14:40:42.248Z,62.44
2022-10-13T14:43:50.282Z,62.37
2022-10-13T14:46:57.563Z,62.32
2022-10-13T14:50:02.723Z,62.25
2022-10-13T14:53:08.638Z,62.20
2022-10-13T14:56:14.155Z,62.14
2022-10-13T14:59:25.686Z,62.11
2022-10-13T15:02:33.380Z,62.06
2022-10-13T15:05:39.559Z,62.03
2022-10-13T15:08:44.776Z,61.98
2022-10-13T15:11:53.569Z,61.98
2022-10-13T15:15:01.882Z,61.95
2022-10-13T15:18:09.577Z,61.91
2022-10-13T15:21:15.296Z,61.90
2022-10-13T15:24:26.250Z,61.86
2022-10-13T15:27:36.887Z,61.68
2022-10-13T15:30:41.888Z,61.56
2022-10-13T15:33:48.767Z,61.58
2022-10-13T15:36:55.983Z,61.67
2022-10-13T15:40:03.886Z,61.66
2022-10-13T15:43:10.293Z,61.67
2022-10-13T15:46:18.209Z,61.66
2022-10-13T15:49:23.884Z,61.65
2022-10-13T15:52:34.772Z,61.53
2022-10-13T15:55:39.127Z,61.44
2022-10-13T15:58:44.732Z,61.46
2022-10-13T16:01:51.206Z,61.45
2022-10-13T16:04:58.049Z,61.36
2022-10-13T16:08:05.760Z,61.39
2022-10-13T16:11:11.905Z,61.57
2022-10-13T16:14:19.561Z,61.56
2022-10-13T16:17:26.109Z,61.61
2022-10-13T16:20:33.539Z,61.71
2022-10-13T16:23:38.418Z,61.74
2022-10-13T16:26:44.989Z,61.65
2022-10-13T16:29:50.011Z,61.56
2022-10-13T16:32:55.217Z,61.50
2022-10-13T16:36:00.837Z,61.60
2022-10-13T16:39:08.899Z,61.67
2022-10-13T16:42:15.148Z,61.72
2022-10-13T16:45:35.448Z,61.75
2022-10-13T16:48:28.716Z,61.75
2022-10-13T16:51:37.525Z,61.85
2022-10-13T16:54:45.095Z,61.92
2022-10-13T16:57:51.580Z,61.96
2022-10-13T17:00:57.013Z,62.04
2022-10-13T17:04:03.087Z,62.08
2022-10-13T17:07:10.360Z,62.01
2022-10-13T17:10:16.054Z,61.97
2022-10-13T17:13:23.503Z,61.94
2022-10-13T17:16:30.272Z,62.04
2022-10-13T17:19:38.602Z,62.17
2022-10-13T17:22:45.255Z,62.31
2022-10-13T17:25:51.703Z,62.35
2022-10-13T17:28:59.644Z,62.42
2022-10-13T17:32:08.535Z,62.42
2022-10-13T17:35:14.371Z,62.38
2022-10-13T17:38:20.871Z,62.41
2022-10-13T17:41:26.368Z,62.48
2022-10-13T17:44:32.708Z,62.56
2022-10-13T17:47:39.473Z,62.59
2022-10-13T17:50:47.213Z,62.72
2022-10-13T17:53:54.832Z,62.88
2022-10-13T17:57:02.145Z,62.98
2022-10-13T18:00:08.566Z,63.01
2022-10-13T18:03:16.867Z,63.05
2022-10-13T18:06:23.679Z,63.10
2022-10-13T18:09:35.992Z,63.17
2022-10-13T18:12:42.661Z,63.24
2022-10-13T18:15:54.022Z,63.33
2022-10-13T18:19:01.454Z,63.38
2022-10-13T18:22:09.314Z,63.54
2022-10-13T18:25:16.550Z,63.61
2022-10-13T18:28:23.395Z,63.78
2022-10-13T18:31:35.836Z,63.90
2022-10-13T18:34:41.193Z,63.92
2022-10-13T18:37:48.326Z,64.05
2022-10-13T18:40:55.001Z,64.03
2022-10-13T18:44:01.957Z,63.96
2022-10-13T18:47:08.480Z,64.01
2022-10-13T18:50:16.007Z,64.16
2022-10-13T18:53:22.769Z,64.23
2022-10-13T18:56:36.674Z,64.26
2022-10-13T18:59:45.490Z,64.33
2022-10-13T19:02:53.481Z,64.40
2022-10-13T19:06:00.449Z,64.46
2022-10-13T19:09:14.409Z,64.48
2022-10-13T19:12:20.232Z,64.53
2022-10-13T19:15:28.841Z,64.59
2022-10-13T19:18:37.067Z,64.68
2022-10-13T19:21:43.835Z,64.78
2022-10-13T19:24:49.262Z,64.77
2022-10-13T19:27:59.781Z,64.77
2022-10-13T19:31:06.353Z,64.81
2022-10-13T19:34:14.134Z,64.84
2022-10-13T19:37:24.354Z,64.84
2022-10-13T19:40:31.781Z,64.91
2022-10-13T19:43:37.767Z,64.89
2022-10-13T19:46:44.178Z,64.94
2022-10-13T19:49:54.880Z,65.03
2022-10-13T19:53:03.154Z,65.09
2022-10-13T19:56:09.806Z,65.11
2022-10-13T19:59:17.358Z,65.11
2022-10-13T20:02:27.659Z,65.15
2022-10-13T20:05:33.538Z,65.11
2022-10-13T20:08:39.733Z,65.12
2022-10-13T20:11:45.393Z,65.05
2022-10-13T20:14:50.909Z,65.08
2022-10-13T20:17:57.068Z,65.22
2022-10-13T20:21:04.574Z,65.24
2022-10-13T20:24:11.123Z,65.28
2022-10-13T20:27:16.205Z,65.38
2022-10-13T20:30:22.333Z,65.38
2022-10-13T20:33:28.800Z,65.46
2022-10-13T20:36:38.798Z,65.52
2022-10-13T20:39:42.709Z,65.64
2022-10-13T20:42:49.421Z,65.61
2022-10-13T20:45:57.219Z,65.61
2022-10-13T20:49:13.458Z,65.59
2022-10-13T20:52:14.226Z,65.56
2022-10-13T20:55:22.422Z,65.62
2022-10-13T20:58:27.870Z,65.63
2022-10-13T21:01:34.814Z,65.71
2022-10-13T21:04:43.786Z,65.80
2022-10-13T21:07:50.690Z,65.82
2022-10-13T21:10:56.598Z,65.86
2022-10-13T21:14:03.855Z,66.02
2022-10-13T21:17:11.473Z,66.12
2022-10-13T21:20:17.501Z,66.17
2022-10-13T21:23:24.277Z,66.19
2022-10-13T21:26:31.140Z,66.21
2022-10-13T21:29:39.271Z,66.20
2022-10-13T21:32:45.771Z,66.09
2022-10-13T21:35:52.200Z,66.17
2022-10-13T21:38:58.285Z,66.18
2022-10-13T21:42:04.084Z,66.21
2022-10-13T21:45:09.650Z,66.23
2022-10-13T21:48:16.777Z,66.27
2022-10-13T21:51:42.304Z,66.30
2022-10-13T21:54:48.161Z,66.42
2022-10-13T21:57:53.625Z,66.46
2022-10-13T22:01:01.558Z,66.46
2022-10-13T22:04:10.711Z,66.49
2022-10-13T22:07:18.950Z,66.48
2022-10-13T22:10:25.421Z,66.55
2022-10-13T22:13:31.347Z,66.72
2022-10-13T22:16:41.088Z,66.69
2022-10-13T22:19:47.901Z,66.73
2022-10-13T22:22:53.463Z,66.83
2022-10-13T22:26:00.610Z,66.90
2022-10-13T22:29:09.713Z,66.96
2022-10-13T22:32:17.017Z,67.00
2022-10-13T22:35:25.174Z,67.03
2022-10-13T22:38:30.536Z,67.05
2022-10-13T22:41:37.320Z,67.04
2022-10-13T22:44:43.286Z,67.05
2022-10-13T22:47:50.093Z,67.03
2022-10-13T22:50:57.157Z,66.97
2022-10-13T22:54:05.182Z,66.93
2022-10-13T22:57:11.974Z,66.98
2022-10-13T23:00:20.415Z,67.06
2022-10-13T23:03:30.956Z,67.08
2022-10-13T23:06:42.293Z,67.11
2022-10-13T23:09:47.475Z,67.25
2022-10-13T23:12:53.025Z,67.35
2022-10-13T23:15:59.041Z,67.30
2022-10-13T23:19:06.571Z,67.34
2022-10-13T23:22:13.564Z,67.50
2022-10-13T23:25:19.516Z,67.58
2022-10-13T23:28:24.715Z,67.65
2022-10-13T23:31:32.954Z,67.77
2022-10-13T23:34:39.856Z,67.80
2022-10-13T23:37:45.577Z,67.71
2022-10-13T23:40:51.334Z,67.66
2022-10-13T23:43:57.272Z,67.49
2022-10-13T23:47:03.510Z,67.63
2022-10-13T23:50:10.659Z,67.79
2022-10-13T23:53:17.046Z,67.92
2022-10-13T23:56:22.577Z,68.00
2022-10-13T23:59:29.153Z,67.99
